Time;durP1;ratioP1;P1;durP2;ratioP2;P2;SDS_P1;SDS_P2;PMS_P1;PMS_P2;Temp;Humidity;BMP_temperature;BMP_pressure;BME280_temperature;BME280_humidity;BME280_pressure;Samples;Min_cycle;Max_cycle;Signal;HPM_P1;HPM_P2
2023/08/06 00:02:23;;;;;;;2.58;2.38;;;15.90;99.90;;;;;;5027949;28;20073;-83
2023/08/06 00:04:48;;;;;;;2.05;1.88;;;15.90;99.90;;;;;;5027769;28;20029;-84
2023/08/06 00:07:14;;;;;;;2.85;2.50;;;15.80;99.90;;;;;;5028420;28;20381;-84
2023/08/06 00:09:40;;;;;;;2.85;2.28;;;15.80;99.90;;;;;;5024145;28;20052;-84
2023/08/06 00:12:06;;;;;;;1.95;1.55;;;15.80;99.90;;;;;;5025554;28;20052;-84
2023/08/06 00:14:31;;;;;;;2.05;1.90;;;15.80;99.90;;;;;;5024401;28;20515;-83
2023/08/06 00:16:57;;;;;;;3.47;2.22;;;15.70;99.90;;;;;;5028532;28;20095;-85
2023/08/06 00:19:22;;;;;;;2.72;2.03;;;15.70;99.90;;;;;;5007785;28;20029;-83
2023/08/06 00:21:48;;;;;;;3.75;2.22;;;15.70;99.90;;;;;;5014638;28;20480;-84
2023/08/06 00:24:13;;;;;;;2.30;2.10;;;15.80;99.90;;;;;;5025872;28;20411;-83
2023/08/06 00:26:39;;;;;;;4.38;2.53;;;15.80;99.90;;;;;;5022563;28;20062;-84
2023/08/06 00:29:04;;;;;;;2.70;2.22;;;15.80;99.90;;;;;;5027142;28;20091;-83
2023/08/06 00:31:30;;;;;;;3.45;2.33;;;15.80;99.90;;;;;;5023717;28;20498;-83
2023/08/06 00:33:56;;;;;;;2.80;1.98;;;15.70;99.90;;;;;;5026880;28;20030;-84
2023/08/06 00:36:21;;;;;;;2.55;2.25;;;15.80;99.90;;;;;;5024335;28;20028;-85
2023/08/06 00:38:47;;;;;;;3.08;2.78;;;15.70;99.90;;;;;;5020151;28;20094;-83
2023/08/06 00:41:12;;;;;;;4.07;3.25;;;15.70;99.90;;;;;;5027455;28;20124;-83
2023/08/06 00:43:38;;;;;;;3.22;2.70;;;15.60;99.90;;;;;;5022363;28;20025;-82
2023/08/06 00:46:04;;;;;;;2.80;2.60;;;15.60;99.90;;;;;;5024712;28;20040;-82
2023/08/06 00:48:29;;;;;;;3.08;2.30;;;15.60;99.90;;;;;;5021882;28;20033;-83
2023/08/06 00:50:55;;;;;;;2.60;2.40;;;15.50;99.90;;;;;;5027317;28;20049;-83
2023/08/06 00:53:21;;;;;;;3.50;2.75;;;15.60;99.90;;;;;;5022413;28;20026;-82
2023/08/06 00:55:47;;;;;;;2.72;2.53;;;15.60;99.90;;;;;;5018205;28;20384;-85
2023/08/06 00:58:15;;;;;;;3.92;2.35;;;15.60;99.90;;;;;;5024687;28;20017;-81
2023/08/06 01:00:40;;;;;;;2.53;2.20;;;15.60;99.90;;;;;;5019776;28;20065;-86
2023/08/06 01:03:06;;;;;;;2.65;2.45;;;15.70;99.90;;;;;;5022241;28;20068;-82
2023/08/06 01:05:32;;;;;;;5.18;2.70;;;15.60;99.90;;;;;;5014279;28;20018;-86
2023/08/06 01:08:08;;;;;;;2.67;2.47;;;15.70;99.90;;;;;;5021735;28;20033;-82
2023/08/06 01:11:12;;;;;;;2.88;2.67;;;15.60;99.90;;;;;;5023319;28;20480;-82
2023/08/06 01:13:46;;;;;;;4.63;2.70;;;15.60;99.90;;;;;;5025315;28;20488;-81
2023/08/06 01:16:16;;;;;;;2.22;2.03;;;15.60;99.90;;;;;;5024186;28;20021;-87
2023/08/06 01:18:45;;;;;;;3.75;2.88;;;15.60;99.90;;;;;;5018172;28;20026;-83
2023/08/06 01:21:14;;;;;;;2.72;2.45;;;15.60;99.90;;;;;;5013731;28;20583;-84
2023/08/06 01:23:40;;;;;;;3.03;2.72;;;15.60;99.90;;;;;;5022427;28;20398;-82
2023/08/06 01:26:26;;;;;;;2.67;2.45;;;15.60;99.90;;;;;;5026081;28;20056;-82
2023/08/06 01:29:10;;;;;;;3.92;2.58;;;15.50;99.90;;;;;;5015620;28;20022;-83
2023/08/06 01:31:38;;;;;;;2.53;2.33;;;15.50;99.90;;;;;;5019396;28;20038;-83
2023/08/06 01:34:09;;;;;;;4.13;2.38;;;15.50;99.90;;;;;;5019050;28;20038;-83
2023/08/06 01:36:36;;;;;;;2.97;2.30;;;15.40;99.90;;;;;;5017967;28;20053;-84
2023/08/06 01:39:01;;;;;;;4.43;2.78;;;15.30;99.90;;;;;;5023115;28;20033;-81
2023/08/06 01:41:27;;;;;;;2.45;2.25;;;15.30;99.90;;;;;;5026644;28;20021;-81
2023/08/06 01:43:52;;;;;;;2.78;2.22;;;15.30;99.90;;;;;;5025776;28;20508;-87
2023/08/06 01:46:18;;;;;;;2.83;2.45;;;15.30;99.90;;;;;;5017938;28;20037;-81
2023/08/06 01:48:44;;;;;;;2.80;2.50;;;15.30;99.90;;;;;;5025981;28;20026;-83
2023/08/06 01:51:09;;;;;;;4.82;2.70;;;15.30;99.90;;;;;;5020352;28;20030;-82
2023/08/06 01:53:35;;;;;;;6.28;3.15;;;15.30;99.90;;;;;;5026438;28;20025;-85
2023/08/06 01:56:01;;;;;;;3.08;2.53;;;15.30;99.90;;;;;;5023201;28;20022;-86
2023/08/06 01:58:27;;;;;;;3.00;2.58;;;15.30;99.90;;;;;;5018144;28;20091;-81
2023/08/06 02:00:52;;;;;;;2.90;2.47;;;15.30;99.90;;;;;;5025712;28;20061;-82
2023/08/06 02:03:18;;;;;;;3.50;3.20;;;15.30;99.90;;;;;;5018888;28;20072;-82
2023/08/06 02:05:45;;;;;;;2.53;2.33;;;15.30;99.90;;;;;;5014332;28;20040;-82
2023/08/06 02:08:11;;;;;;;3.30;2.75;;;15.30;99.90;;;;;;5019301;28;20039;-81
2023/08/06 02:10:37;;;;;;;3.88;2.75;;;15.20;99.90;;;;;;5026513;28;20076;-85
2023/08/06 02:13:02;;;;;;;2.97;2.75;;;15.20;99.90;;;;;;5024684;28;20084;-84
2023/08/06 02:15:28;;;;;;;3.47;3.17;;;15.20;99.90;;;;;;5019193;28;20112;-82
2023/08/06 02:17:54;;;;;;;4.93;3.35;;;15.20;99.90;;;;;;5019417;28;20032;-81
2023/08/06 02:20:19;;;;;;;3.20;2.90;;;15.20;99.90;;;;;;5019882;28;20548;-83
2023/08/06 02:22:45;;;;;;;6.18;2.92;;;15.20;99.90;;;;;;5020599;28;20396;-82
2023/08/06 02:25:10;;;;;;;5.60;3.30;;;15.10;99.90;;;;;;5015626;28;20718;-83
2023/08/06 02:27:37;;;;;;;3.58;2.42;;;15.20;99.90;;;;;;5018956;28;20033;-81
2023/08/06 02:30:04;;;;;;;4.07;3.00;;;15.10;99.90;;;;;;5025514;28;20026;-81
2023/08/06 02:32:31;;;;;;;3.45;2.58;;;15.10;99.90;;;;;;5009262;28;20026;-84
2023/08/06 02:34:57;;;;;;;3.15;2.63;;;15.10;99.90;;;;;;5015951;28;20054;-82
2023/08/06 02:37:22;;;;;;;3.90;2.67;;;15.10;99.90;;;;;;5009615;28;20503;-83
2023/08/06 02:39:48;;;;;;;4.50;3.13;;;15.10;99.90;;;;;;5027647;28;20021;-82
2023/08/06 02:42:13;;;;;;;3.25;2.92;;;15.10;99.90;;;;;;5022780;28;20397;-83
2023/08/06 02:44:39;;;;;;;4.07;2.88;;;15.00;99.90;;;;;;5018847;28;20484;-83
2023/08/06 02:47:05;;;;;;;4.80;3.63;;;15.00;99.90;;;;;;5024383;28;20029;-82
2023/08/06 02:49:31;;;;;;;4.45;2.80;;;15.00;99.90;;;;;;5018867;28;20030;-83
2023/08/06 02:51:56;;;;;;;3.40;3.10;;;14.90;99.90;;;;;;5021475;28;20366;-83
2023/08/06 02:54:22;;;;;;;7.15;3.90;;;14.90;99.90;;;;;;5020247;28;20021;-83
2023/08/06 02:56:48;;;;;;;5.30;3.50;;;14.90;99.90;;;;;;5028398;28;20139;-82
2023/08/06 02:59:13;;;;;;;4.07;2.88;;;14.90;99.90;;;;;;5025279;28;20022;-85
2023/08/06 03:01:39;;;;;;;3.92;3.22;;;14.90;99.90;;;;;;5022669;28;20084;-83
2023/08/06 03:04:05;;;;;;;3.58;3.00;;;14.90;99.90;;;;;;5027252;28;20516;-83
2023/08/06 03:06:31;;;;;;;7.72;3.40;;;15.00;99.90;;;;;;5021211;28;20058;-85
2023/08/06 03:08:56;;;;;;;4.55;2.58;;;14.90;99.90;;;;;;5030723;28;20031;-83
2023/08/06 03:11:22;;;;;;;4.20;3.13;;;14.90;99.90;;;;;;5014478;28;20104;-82
2023/08/06 03:13:48;;;;;;;4.22;3.10;;;14.90;99.90;;;;;;5026616;28;20018;-84
2023/08/06 03:16:13;;;;;;;3.05;2.75;;;14.90;99.90;;;;;;5025121;28;20037;-83
2023/08/06 03:18:39;;;;;;;4.22;3.22;;;14.90;99.90;;;;;;5026978;28;20113;-83
2023/08/06 03:21:05;;;;;;;3.20;2.90;;;14.90;99.90;;;;;;5020117;28;20018;-85
2023/08/06 03:23:34;;;;;;;5.15;2.85;;;14.90;99.90;;;;;;5026539;28;20030;-82
2023/08/06 03:26:02;;;;;;;4.28;2.50;;;14.90;99.90;;;;;;5024877;28;20018;-85
2023/08/06 03:28:28;;;;;;;4.03;2.83;;;14.90;99.90;;;;;;5022352;28;20087;-82
2023/08/06 03:31:03;;;;;;;3.13;2.63;;;14.90;99.90;;;;;;5027679;28;20077;-85
2023/08/06 03:33:29;;;;;;;3.60;3.03;;;14.90;99.90;;;;;;5023094;28;20057;-85
2023/08/06 03:35:55;;;;;;;5.30;3.25;;;14.90;99.90;;;;;;5027869;28;20752;-82
2023/08/06 03:38:21;;;;;;;4.97;3.05;;;14.80;99.90;;;;;;5025083;28;20076;-83
2023/08/06 03:40:47;;;;;;;4.30;2.95;;;14.80;99.90;;;;;;5028037;28;20025;-83
2023/08/06 03:43:12;;;;;;;4.38;2.70;;;14.80;99.90;;;;;;5027777;28;20022;-86
2023/08/06 03:45:38;;;;;;;3.67;2.80;;;14.80;99.90;;;;;;5022519;28;20026;-82
2023/08/06 03:48:04;;;;;;;4.40;3.05;;;14.80;99.90;;;;;;5028104;28;20029;-83
2023/08/06 03:50:29;;;;;;;4.18;2.70;;;14.80;99.90;;;;;;5021553;28;20025;-83
2023/08/06 03:52:55;;;;;;;3.15;2.83;;;14.80;99.90;;;;;;5027092;28;20130;-83
2023/08/06 03:55:21;;;;;;;5.40;3.20;;;14.80;99.90;;;;;;5022679;28;20029;-82
2023/08/06 03:57:47;;;;;;;7.97;3.30;;;14.70;99.90;;;;;;5027760;28;20017;-82
2023/08/06 04:00:13;;;;;;;4.35;2.92;;;14.70;99.90;;;;;;5025816;28;20029;-83
2023/08/06 04:02:38;;;;;;;4.63;2.85;;;14.70;99.90;;;;;;5021146;28;20022;-82
2023/08/06 04:05:04;;;;;;;4.90;2.90;;;14.70;99.90;;;;;;5025818;28;20040;-81
2023/08/06 04:07:30;;;;;;;5.07;2.65;;;14.70;99.90;;;;;;5023122;28;20099;-84
2023/08/06 04:09:58;;;;;;;4.57;3.30;;;14.70;99.90;;;;;;5026593;28;20029;-83
2023/08/06 04:12:24;;;;;;;3.83;3.10;;;14.70;99.90;;;;;;5024575;28;20506;-84
2023/08/06 04:14:51;;;;;;;5.55;3.45;;;14.70;99.90;;;;;;5016515;28;20029;-83
2023/08/06 04:17:20;;;;;;;3.75;3.33;;;14.70;99.90;;;;;;5024859;28;20025;-83
2023/08/06 04:19:52;;;;;;;4.05;2.90;;;14.70;99.90;;;;;;5018474;28;20017;-81
2023/08/06 04:22:18;;;;;;;3.92;3.53;;;14.70;99.90;;;;;;5010444;28;20485;-83
2023/08/06 04:24:44;;;;;;;3.30;2.67;;;14.70;99.90;;;;;;5011234;28;20117;-82
2023/08/06 04:27:10;;;;;;;3.95;3.15;;;14.70;99.90;;;;;;5010781;28;20572;-83
2023/08/06 04:29:36;;;;;;;4.75;2.90;;;14.70;99.90;;;;;;5012883;28;20026;-83
2023/08/06 04:32:04;;;;;;;4.25;2.97;;;14.70;99.90;;;;;;5010406;28;20034;-83
2023/08/06 04:34:29;;;;;;;3.83;3.15;;;14.70;99.90;;;;;;5020243;28;20199;-83
2023/08/06 04:36:55;;;;;;;3.58;3.10;;;14.70;99.90;;;;;;5015816;28;20628;-83
2023/08/06 04:39:20;;;;;;;3.72;3.20;;;14.70;99.90;;;;;;5010834;28;20033;-83
2023/08/06 04:41:46;;;;;;;4.35;2.80;;;14.70;99.90;;;;;;5031138;28;20492;-87
2023/08/06 04:44:11;;;;;;;6.65;3.53;;;14.70;99.90;;;;;;5018742;28;20026;-84
2023/08/06 04:46:37;;;;;;;4.57;2.90;;;14.70;99.90;;;;;;5026718;28;20168;-82
2023/08/06 04:49:02;;;;;;;4.85;2.92;;;14.70;99.90;;;;;;5013203;28;20029;-83
2023/08/06 04:51:28;;;;;;;3.65;3.08;;;14.70;99.90;;;;;;5027258;28;20022;-84
2023/08/06 04:53:54;;;;;;;2.90;2.70;;;14.70;99.90;;;;;;5023397;28;20053;-84
2023/08/06 04:56:19;;;;;;;5.45;3.53;;;14.60;99.90;;;;;;5025072;28;20024;-83
2023/08/06 04:58:45;;;;;;;3.47;2.67;;;14.70;99.90;;;;;;5021118;28;20026;-84
2023/08/06 05:01:13;;;;;;;3.13;2.83;;;14.60;99.90;;;;;;5012044;28;20369;-85
2023/08/06 05:03:39;;;;;;;3.90;2.95;;;14.60;99.90;;;;;;5027225;28;20022;-85
2023/08/06 05:06:04;;;;;;;4.15;2.80;;;14.60;99.90;;;;;;5020148;28;20485;-84
2023/08/06 05:08:30;;;;;;;5.25;3.63;;;14.60;99.90;;;;;;5027177;28;20025;-85
2023/08/06 05:10:56;;;;;;;5.18;4.00;;;14.60;99.90;;;;;;5024090;28;20025;-84
2023/08/06 05:13:21;;;;;;;4.68;3.33;;;14.60;99.90;;;;;;5022300;28;20021;-85
2023/08/06 05:15:47;;;;;;;3.60;3.25;;;14.60;99.90;;;;;;5022811;28;20085;-84
2023/08/06 05:18:12;;;;;;;4.53;3.35;;;14.60;99.90;;;;;;5026657;28;20327;-84
2023/08/06 05:20:40;;;;;;;6.32;3.95;;;14.70;99.90;;;;;;5012258;28;20578;-83
2023/08/06 05:23:06;;;;;;;5.13;3.60;;;14.60;99.90;;;;;;5029222;28;20116;-83
2023/08/06 05:25:31;;;;;;;5.30;2.92;;;14.70;99.90;;;;;;5028889;28;20061;-84
2023/08/06 05:27:57;;;;;;;4.30;3.47;;;14.70;99.90;;;;;;5021927;28;20032;-86
2023/08/06 05:30:23;;;;;;;5.13;3.47;;;14.70;99.90;;;;;;5019578;28;20585;-83
2023/08/06 05:32:48;;;;;;;3.90;3.25;;;14.70;99.90;;;;;;5022108;28;20553;-85
2023/08/06 05:35:14;;;;;;;4.97;3.33;;;14.70;99.90;;;;;;5025084;28;20025;-84
2023/08/06 05:37:39;;;;;;;4.63;2.85;;;14.70;99.90;;;;;;5014439;28;20045;-85
2023/08/06 05:40:05;;;;;;;5.68;3.50;;;14.70;99.90;;;;;;5027665;28;20025;-84
2023/08/06 05:42:31;;;;;;;4.13;3.42;;;14.70;99.90;;;;;;5022330;28;20492;-84
2023/08/06 05:44:56;;;;;;;4.43;3.85;;;14.70;99.90;;;;;;5020283;28;20035;-84
2023/08/06 05:47:22;;;;;;;6.20;3.63;;;14.80;99.90;;;;;;5022156;28;20029;-85
2023/08/06 05:49:48;;;;;;;6.90;4.32;;;14.80;99.90;;;;;;5021053;28;20052;-85
2023/08/06 05:52:13;;;;;;;5.88;4.00;;;14.80;99.90;;;;;;5018462;28;20022;-83
2023/08/06 05:54:40;;;;;;;4.45;3.70;;;14.80;99.90;;;;;;5021433;28;20018;-83
2023/08/06 05:57:06;;;;;;;5.38;4.07;;;14.80;99.90;;;;;;5028194;28;20017;-86
2023/08/06 05:59:31;;;;;;;4.00;3.45;;;14.90;99.90;;;;;;5022085;28;20488;-86
2023/08/06 06:01:57;;;;;;;4.82;4.15;;;14.80;99.90;;;;;;5024134;28;20041;-85
2023/08/06 06:04:23;;;;;;;5.65;3.10;;;14.90;99.90;;;;;;5022753;28;20025;-84
2023/08/06 06:06:48;;;;;;;7.03;4.43;;;14.90;99.90;;;;;;5013655;28;20025;-86
2023/08/06 06:09:14;;;;;;;4.82;4.07;;;14.90;99.90;;;;;;5025927;28;20053;-83
2023/08/06 06:11:39;;;;;;;4.65;3.90;;;14.90;99.90;;;;;;5021910;28;20303;-84
2023/08/06 06:14:05;;;;;;;4.90;3.38;;;15.00;99.90;;;;;;5025740;28;20032;-85
2023/08/06 06:16:30;;;;;;;6.10;3.60;;;15.00;99.90;;;;;;5020201;28;20385;-84
2023/08/06 06:18:57;;;;;;;4.53;4.13;;;15.00;99.90;;;;;;5025017;28;20021;-85
2023/08/06 06:21:23;;;;;;;5.50;3.78;;;15.00;99.90;;;;;;5022530;28;20113;-84
2023/08/06 06:23:51;;;;;;;4.03;3.63;;;15.10;99.90;;;;;;5025926;28;20037;-84
2023/08/06 06:26:19;;;;;;;7.00;4.10;;;15.00;99.90;;;;;;5023769;28;20025;-83
2023/08/06 06:28:45;;;;;;;4.65;3.33;;;15.10;99.90;;;;;;5013937;28;20026;-84
2023/08/06 06:31:11;;;;;;;4.82;4.35;;;15.10;99.90;;;;;;5020460;28;20026;-84
2023/08/06 06:33:36;;;;;;;5.97;3.72;;;15.10;99.90;;;;;;5020787;28;20022;-83
2023/08/06 06:36:07;;;;;;;5.50;3.85;;;15.10;99.90;;;;;;5028572;28;20045;-83
2023/08/06 06:38:33;;;;;;;6.10;3.45;;;15.10;99.90;;;;;;5025977;28;20022;-83
2023/08/06 06:40:59;;;;;;;6.18;3.58;;;15.10;99.90;;;;;;5024926;28;20025;-83
2023/08/06 06:43:25;;;;;;;7.50;4.07;;;15.10;99.90;;;;;;5023655;28;20021;-84
2023/08/06 06:46:01;;;;;;;4.10;3.70;;;15.20;99.90;;;;;;5001471;28;20036;-83
2023/08/06 06:48:33;;;;;;;5.43;4.43;;;15.20;99.90;;;;;;5023459;28;20341;-83
2023/08/06 06:50:59;;;;;;;6.35;4.22;;;15.20;99.90;;;;;;5017797;28;20029;-84
2023/08/06 06:53:27;;;;;;;5.95;3.50;;;15.20;99.90;;;;;;5029059;28;20095;-84
2023/08/06 06:55:53;;;;;;;5.55;3.25;;;15.20;99.90;;;;;;5024838;28;20026;-84
2023/08/06 06:58:19;;;;;;;6.05;4.68;;;15.20;99.90;;;;;;5029719;28;20079;-83
2023/08/06 07:00:46;;;;;;;4.72;3.88;;;15.20;99.90;;;;;;5025171;28;20025;-82
2023/08/06 07:03:11;;;;;;;4.45;3.53;;;15.20;99.90;;;;;;5024346;28;20026;-84
2023/08/06 07:05:37;;;;;;;6.05;3.80;;;15.20;99.90;;;;;;5025535;28;20083;-85
2023/08/06 07:08:03;;;;;;;6.68;3.72;;;15.20;99.90;;;;;;5022960;28;20738;-84
2023/08/06 07:10:28;;;;;;;7.60;4.45;;;15.20;99.90;;;;;;5028019;28;20164;-83
2023/08/06 07:12:54;;;;;;;4.88;4.03;;;15.20;99.90;;;;;;5024659;28;20025;-85
2023/08/06 07:15:20;;;;;;;4.90;3.72;;;15.10;99.90;;;;;;5020559;28;20018;-83
2023/08/06 07:17:45;;;;;;;4.50;3.72;;;15.10;99.90;;;;;;5030797;28;20017;-83
2023/08/06 07:20:11;;;;;;;5.40;4.28;;;15.10;99.90;;;;;;5014763;28;20064;-84
2023/08/06 07:22:37;;;;;;;7.60;4.38;;;15.10;99.90;;;;;;5021829;28;20457;-83
2023/08/06 07:25:03;;;;;;;5.40;3.75;;;15.10;99.90;;;;;;5024531;28;20033;-83
2023/08/06 07:27:28;;;;;;;4.85;4.35;;;15.10;99.90;;;;;;5022255;28;20099;-83
2023/08/06 07:29:54;;;;;;;4.53;3.78;;;15.10;99.90;;;;;;5028159;28;20025;-84
2023/08/06 07:32:20;;;;;;;6.35;4.25;;;15.10;99.90;;;;;;5019123;28;20036;-83
2023/08/06 07:34:45;;;;;;;6.93;4.32;;;15.10;99.90;;;;;;5028146;28;20028;-83
2023/08/06 07:37:11;;;;;;;5.53;4.00;;;15.20;99.90;;;;;;5022173;28;20049;-83
2023/08/06 07:39:39;;;;;;;6.68;4.15;;;15.20;99.90;;;;;;5027610;28;20029;-81
2023/08/06 07:42:06;;;;;;;10.00;3.90;;;15.30;99.90;;;;;;5024514;28;20432;-82
2023/08/06 07:44:32;;;;;;;5.38;4.05;;;15.30;99.90;;;;;;5018215;28;20029;-83
2023/08/06 07:46:58;;;;;;;6.03;4.35;;;15.40;99.90;;;;;;5027650;28;20048;-83
2023/08/06 07:49:23;;;;;;;5.57;4.22;;;15.40;99.90;;;;;;5019373;28;20064;-82
2023/08/06 07:51:49;;;;;;;8.07;4.93;;;15.40;99.90;;;;;;5029545;28;20437;-84
2023/08/06 07:54:14;;;;;;;7.03;4.45;;;15.50;99.90;;;;;;5018731;28;20025;-81
2023/08/06 07:56:40;;;;;;;4.40;4.00;;;15.50;99.90;;;;;;5030609;28;20022;-84
2023/08/06 07:59:05;;;;;;;5.63;4.63;;;15.50;99.90;;;;;;5024762;28;20037;-82
2023/08/06 08:01:31;;;;;;;6.18;4.22;;;15.60;99.90;;;;;;5020490;28;20211;-84
2023/08/06 08:03:57;;;;;;;6.55;4.78;;;15.60;99.90;;;;;;5025331;28;20794;-83
2023/08/06 08:06:23;;;;;;;6.18;4.78;;;15.60;99.90;;;;;;5019272;28;20014;-82
2023/08/06 08:08:48;;;;;;;9.25;5.07;;;15.60;99.90;;;;;;5029076;28;20018;-84
2023/08/06 08:11:15;;;;;;;6.57;4.40;;;15.70;99.90;;;;;;5020205;28;20033;-83
2023/08/06 08:13:41;;;;;;;7.38;4.93;;;15.70;99.90;;;;;;5023003;28;20108;-83
2023/08/06 08:16:07;;;;;;;5.40;4.15;;;15.80;99.90;;;;;;5020889;28;20081;-85
2023/08/06 08:18:32;;;;;;;5.72;4.57;;;15.80;99.90;;;;;;5023932;28;20022;-84
2023/08/06 08:20:58;;;;;;;7.32;4.72;;;15.90;99.90;;;;;;5025103;28;20364;-84
2023/08/06 08:23:24;;;;;;;8.68;4.70;;;15.80;99.90;;;;;;5016523;28;20061;-84
2023/08/06 08:25:49;;;;;;;8.25;5.00;;;15.80;99.90;;;;;;5022813;28;20029;-86
2023/08/06 08:28:15;;;;;;;5.20;4.70;;;15.90;99.90;;;;;;5020135;28;20037;-84
2023/08/06 08:30:41;;;;;;;9.93;5.05;;;16.00;99.90;;;;;;5022268;28;20056;-83
2023/08/06 08:33:07;;;;;;;6.88;5.03;;;16.00;99.90;;;;;;5020936;28;20084;-84
2023/08/06 08:35:33;;;;;;;6.68;4.85;;;16.00;99.90;;;;;;5014840;28;20129;-83
2023/08/06 08:37:59;;;;;;;6.68;4.72;;;16.10;99.90;;;;;;5019511;28;20114;-82
2023/08/06 08:40:32;;;;;;;7.65;4.78;;;16.10;99.90;;;;;;5022495;28;20412;-85
2023/08/06 08:42:59;;;;;;;6.43;4.90;;;16.10;99.90;;;;;;5024633;28;20033;-83
2023/08/06 08:45:28;;;;;;;5.72;4.40;;;16.10;99.90;;;;;;5018289;28;20029;-85
2023/08/06 08:47:54;;;;;;;5.43;4.93;;;16.20;99.90;;;;;;5024262;28;20148;-84
2023/08/06 08:50:21;;;;;;;6.40;5.28;;;16.30;99.90;;;;;;5019079;28;20113;-85
2023/08/06 08:52:48;;;;;;;6.40;5.80;;;16.40;99.90;;;;;;5024278;28;20797;-84
2023/08/06 08:55:15;;;;;;;11.25;5.50;;;16.40;99.90;;;;;;5016286;28;20030;-84
2023/08/06 08:57:41;;;;;;;5.95;5.32;;;16.30;99.90;;;;;;5023829;28;20628;-85
2023/08/06 09:00:07;;;;;;;7.28;5.90;;;16.40;99.90;;;;;;5022794;28;20049;-85
2023/08/06 09:02:33;;;;;;;10.48;6.40;;;16.50;99.90;;;;;;5017315;28;20021;-86
2023/08/06 09:05:02;;;;;;;8.05;6.00;;;16.50;99.90;;;;;;5019134;28;20075;-85
2023/08/06 09:07:35;;;;;;;6.15;5.60;;;16.40;99.90;;;;;;5018879;28;20021;-83
2023/08/06 09:10:05;;;;;;;5.88;5.13;;;16.50;99.90;;;;;;5023030;28;20030;-85
2023/08/06 09:12:31;;;;;;;6.25;5.35;;;16.50;99.90;;;;;;5020804;28;20408;-83
2023/08/06 09:14:57;;;;;;;7.78;6.00;;;16.50;99.90;;;;;;5018158;28;20018;-85
2023/08/06 09:17:23;;;;;;;8.82;6.30;;;16.50;99.90;;;;;;5021719;28;20033;-85
2023/08/06 09:19:49;;;;;;;9.35;5.60;;;16.50;99.90;;;;;;5021357;28;20013;-86
2023/08/06 09:22:15;;;;;;;6.70;5.95;;;16.60;99.90;;;;;;5021498;28;20036;-84
2023/08/06 09:24:41;;;;;;;7.22;6.50;;;16.60;99.90;;;;;;5022023;28;20108;-85
2023/08/06 09:27:14;;;;;;;6.60;5.97;;;16.60;99.90;;;;;;5016955;28;20038;-85
2023/08/06 09:29:46;;;;;;;8.20;5.65;;;16.60;99.90;;;;;;5015387;28;20519;-85
2023/08/06 09:32:12;;;;;;;6.25;5.53;;;16.70;99.90;;;;;;5014799;28;20034;-84
2023/08/06 09:34:41;;;;;;;7.18;6.43;;;16.70;99.90;;;;;;5023397;28;20052;-83
2023/08/06 09:37:09;;;;;;;9.50;6.65;;;16.60;99.90;;;;;;5010330;28;20029;-85
2023/08/06 09:39:40;;;;;;;6.25;5.47;;;16.50;99.90;;;;;;5022883;28;20025;-83
2023/08/06 09:42:05;;;;;;;5.70;5.15;;;16.50;99.90;;;;;;5019917;28;20018;-85
2023/08/06 09:44:34;;;;;;;7.43;6.32;;;16.50;99.90;;;;;;5014848;28;20036;-85
2023/08/06 09:47:02;;;;;;;6.90;5.47;;;16.60;99.90;;;;;;5022808;28;20496;-83
2023/08/06 09:49:51;;;;;;;5.53;4.80;;;16.60;99.90;;;;;;5015386;28;20025;-85
2023/08/06 09:52:18;;;;;;;6.07;5.22;;;16.60;99.90;;;;;;5022840;28;20420;-85
2023/08/06 09:54:44;;;;;;;7.40;5.47;;;16.50;99.90;;;;;;5018179;28;20716;-85
2023/08/06 09:57:11;;;;;;;8.95;5.72;;;16.50;99.90;;;;;;5024961;28;20026;-85
2023/08/06 09:59:40;;;;;;;4.50;4.13;;;16.50;99.90;;;;;;5019179;28;20080;-85
2023/08/06 10:02:12;;;;;;;5.88;4.90;;;16.50;99.90;;;;;;5017759;28;20045;-85
2023/08/06 10:04:38;;;;;;;6.97;5.13;;;16.50;99.90;;;;;;5018581;28;20117;-85
2023/08/06 10:07:05;;;;;;;6.13;5.53;;;16.50;99.90;;;;;;5016813;28;20021;-86
2023/08/06 10:09:30;;;;;;;6.30;5.53;;;16.50;99.90;;;;;;5020771;28;20102;-86
2023/08/06 10:11:59;;;;;;;6.75;5.57;;;16.60;99.90;;;;;;5013461;28;20056;-85
2023/08/06 10:14:34;;;;;;;6.03;5.05;;;16.50;99.90;;;;;;5019239;28;20029;-85
2023/08/06 10:17:01;;;;;;;6.15;5.55;;;16.50;99.90;;;;;;5011573;28;20021;-86
2023/08/06 10:19:28;;;;;;;8.50;5.97;;;16.60;99.90;;;;;;5022287;28;20045;-84
2023/08/06 10:22:14;;;;;;;8.60;6.70;;;16.50;99.90;;;;;;5017990;28;20026;-85
2023/08/06 10:24:54;;;;;;;6.65;5.88;;;16.50;99.90;;;;;;5021883;28;20030;-84
2023/08/06 10:27:21;;;;;;;7.47;6.13;;;16.50;99.90;;;;;;5011704;28;20041;-84
2023/08/06 10:29:47;;;;;;;5.57;5.07;;;16.50;99.90;;;;;;5023140;28;20021;-85
2023/08/06 10:32:13;;;;;;;7.28;6.07;;;16.50;99.90;;;;;;5013837;28;20580;-84
2023/08/06 10:35:27;;;;;;;5.93;5.38;;;16.40;99.90;;;;;;5020693;28;20480;-84
2023/08/06 10:37:52;;;;;;;6.80;5.55;;;16.40;99.90;;;;;;5013296;28;20057;-85
2023/08/06 10:40:20;;;;;;;7.00;5.50;;;16.40;99.90;;;;;;5022146;28;20048;-85
2023/08/06 10:42:46;;;;;;;7.22;6.53;;;16.40;99.90;;;;;;5018517;28;20688;-86
2023/08/06 10:45:14;;;;;;;6.22;5.45;;;16.40;99.90;;;;;;5016805;28;20034;-85
2023/08/06 10:47:40;;;;;;;7.03;6.18;;;16.40;99.90;;;;;;5018396;28;20034;-85
2023/08/06 10:50:17;;;;;;;6.20;4.93;;;16.40;99.90;;;;;;5014317;28;20447;-85
2023/08/06 10:52:47;;;;;;;6.43;5.70;;;16.50;99.90;;;;;;5019481;28;20587;-85
2023/08/06 10:55:21;;;;;;;6.88;5.63;;;16.50;99.90;;;;;;5018298;28;20460;-85
2023/08/06 10:57:47;;;;;;;6.55;5.50;;;16.50;99.90;;;;;;5021405;28;20045;-85
2023/08/06 11:00:13;;;;;;;7.25;5.50;;;16.60;99.90;;;;;;5018373;28;20445;-83
2023/08/06 11:02:39;;;;;;;6.25;5.55;;;16.60;99.90;;;;;;5014660;28;20057;-86
2023/08/06 11:05:09;;;;;;;7.68;6.22;;;16.50;99.90;;;;;;5019124;28;20072;-86
2023/08/06 11:07:36;;;;;;;6.75;5.45;;;16.60;99.90;;;;;;5020256;28;20058;-86
2023/08/06 11:10:09;;;;;;;5.65;5.15;;;16.60;99.90;;;;;;5027542;28;20120;-86
2023/08/06 11:12:38;;;;;;;8.02;5.90;;;16.60;99.90;;;;;;5024232;28;20063;-87
2023/08/06 11:15:05;;;;;;;5.97;5.28;;;16.60;99.90;;;;;;5017049;28;20022;-85
2023/08/06 11:17:33;;;;;;;7.53;6.47;;;16.70;99.90;;;;;;5021051;28;20084;-86
2023/08/06 11:20:00;;;;;;;7.15;5.53;;;16.70;99.90;;;;;;5021573;28;20022;-85
2023/08/06 11:22:26;;;;;;;6.07;5.47;;;16.70;99.90;;;;;;5024616;28;20686;-85
2023/08/06 11:24:53;;;;;;;7.55;6.25;;;16.70;99.90;;;;;;5024225;28;20045;-84
2023/08/06 11:27:19;;;;;;;6.82;5.60;;;16.70;99.90;;;;;;5019631;28;20076;-86
2023/08/06 11:29:45;;;;;;;6.53;5.93;;;16.70;99.90;;;;;;5025043;28;20037;-85
2023/08/06 11:32:12;;;;;;;5.53;5.00;;;16.60;99.90;;;;;;5018052;28;20052;-85
2023/08/06 11:34:38;;;;;;;6.78;4.72;;;16.70;99.90;;;;;;5032571;28;20048;-86
2023/08/06 11:37:05;;;;;;;5.25;4.75;;;16.70;99.90;;;;;;5021708;28;20032;-85
2023/08/06 11:39:32;;;;;;;6.22;5.63;;;16.70;99.90;;;;;;5025857;28;20036;-84
2023/08/06 11:42:00;;;;;;;6.10;5.38;;;16.70;99.90;;;;;;5023409;28;20025;-83
2023/08/06 11:44:26;;;;;;;6.30;5.68;;;16.60;99.90;;;;;;5015815;28;20026;-85
2023/08/06 11:46:56;;;;;;;7.90;5.57;;;16.60;99.90;;;;;;5019837;28;20040;-84
2023/08/06 11:49:45;;;;;;;10.48;6.50;;;16.60;99.90;;;;;;5016004;28;20022;-83
2023/08/06 11:52:19;;;;;;;7.15;5.68;;;16.70;99.90;;;;;;5011581;28;20563;-85
2023/08/06 11:55:03;;;;;;;6.10;5.50;;;16.60;99.90;;;;;;5018624;28;20021;-84
2023/08/06 11:57:34;;;;;;;6.13;5.53;;;16.70;99.90;;;;;;5024907;28;20152;-85
2023/08/06 12:00:09;;;;;;;7.20;5.63;;;16.80;99.90;;;;;;5022146;28;20357;-85
2023/08/06 12:02:36;;;;;;;6.22;4.88;;;16.80;99.90;;;;;;5018064;28;20524;-84
2023/08/06 12:05:32;;;;;;;7.50;6.15;;;16.90;99.90;;;;;;5023199;28;20030;-83
2023/08/06 12:07:59;;;;;;;7.75;5.70;;;17.00;99.90;;;;;;5019509;28;20030;-84
2023/08/06 12:10:27;;;;;;;8.82;6.57;;;17.00;99.90;;;;;;5024589;28;20037;-82
2023/08/06 12:12:53;;;;;;;8.00;5.63;;;17.00;99.90;;;;;;5021033;28;20056;-85
2023/08/06 12:15:20;;;;;;;8.52;6.38;;;17.00;99.90;;;;;;5016578;28;20025;-84
2023/08/06 12:17:45;;;;;;;7.95;6.53;;;17.00;99.90;;;;;;5025943;28;20031;-85
2023/08/06 12:20:11;;;;;;;8.15;5.82;;;17.00;99.90;;;;;;5018677;28;20504;-85
2023/08/06 12:22:39;;;;;;;8.05;5.63;;;17.10;99.90;;;;;;5017806;28;20657;-86
2023/08/06 12:25:08;;;;;;;6.82;5.30;;;17.20;99.90;;;;;;5021660;28;20026;-84
2023/08/06 12:27:41;;;;;;;6.50;5.90;;;17.30;99.90;;;;;;5020080;28;20034;-86
2023/08/06 12:30:08;;;;;;;7.70;6.35;;;17.40;99.90;;;;;;5026679;28;20163;-85
2023/08/06 12:32:35;;;;;;;7.43;5.93;;;17.40;99.90;;;;;;5016966;28;20029;-85
2023/08/06 12:35:01;;;;;;;5.93;4.80;;;17.40;99.90;;;;;;5024104;28;20026;-85
2023/08/06 12:37:27;;;;;;;5.72;4.63;;;17.50;99.90;;;;;;5018471;28;20044;-85
2023/08/06 12:39:53;;;;;;;6.38;5.05;;;17.50;99.90;;;;;;5026658;28;20029;-84
2023/08/06 12:42:18;;;;;;;7.70;4.57;;;17.50;99.90;;;;;;5019252;28;20076;-84
2023/08/06 12:44:44;;;;;;;7.03;4.50;;;17.60;99.90;;;;;;5018817;28;20060;-83
2023/08/06 12:47:10;;;;;;;7.80;4.47;;;17.60;99.90;;;;;;5021422;28;20030;-85